Time;durP1;ratioP1;P1;durP2;ratioP2;P2;SDS_P1;SDS_P2;PMS_P1;PMS_P2;Temp;Humidity;BMP_temperature;BMP_pressure;BME280_temperature;BME280_humidity;BME280_pressure;Samples;Min_cycle;Max_cycle;Signal;HPM_P1;HPM_P2
2022/08/24 00:01:24;;;;;;;9.63;4.87;;;21.90;85.30;;;;;;5075988;28;20475;-57
2022/08/24 00:03:51;;;;;;;6.83;5.13;;;22.00;85.70;;;;;;5075926;28;20517;-56
2022/08/24 00:06:21;;;;;;;4.87;4.40;;;22.00;85.80;;;;;;5075713;28;20958;-56
2022/08/24 00:08:50;;;;;;;4.90;4.27;;;22.00;86.00;;;;;;5075979;28;20535;-56
2022/08/24 00:11:17;;;;;;;5.07;4.67;;;21.90;86.20;;;;;;5075934;28;20483;-57
2022/08/24 00:13:46;;;;;;;4.90;4.60;;;21.60;86.90;;;;;;5075682;28;20452;-56
2022/08/24 00:16:14;;;;;;;4.70;4.00;;;21.60;87.80;;;;;;5075847;28;20468;-57
2022/08/24 00:18:43;;;;;;;7.80;4.80;;;21.60;87.80;;;;;;5075498;28;20448;-56
2022/08/24 00:21:11;;;;;;;5.20;4.40;;;21.60;88.30;;;;;;5075511;28;20986;-56
2022/08/24 00:23:38;;;;;;;4.73;4.33;;;21.60;88.40;;;;;;5075743;28;20453;-56
2022/08/24 00:26:06;;;;;;;8.90;4.07;;;21.60;88.70;;;;;;5075621;28;20902;-56
2022/08/24 00:28:34;;;;;;;5.60;4.50;;;21.60;88.80;;;;;;5075734;28;20534;-56
2022/08/24 00:31:03;;;;;;;4.80;4.30;;;21.60;88.70;;;;;;5075792;28;20503;-56
2022/08/24 00:33:31;;;;;;;5.53;4.57;;;21.50;88.90;;;;;;5075530;28;20460;-56
2022/08/24 00:35:58;;;;;;;7.43;4.47;;;21.40;89.90;;;;;;5075131;28;20815;-57
2022/08/24 00:38:25;;;;;;;4.73;4.33;;;21.20;90.30;;;;;;5075251;28;20454;-56
2022/08/24 00:40:53;;;;;;;4.77;4.37;;;21.10;90.80;;;;;;5075068;28;21001;-56
2022/08/24 00:43:22;;;;;;;5.00;4.50;;;21.00;91.00;;;;;;5075136;28;20450;-56
2022/08/24 00:46:07;;;;;;;5.13;4.73;;;21.10;91.60;;;;;;5074910;28;20480;-56
2022/08/24 00:48:41;;;;;;;5.43;4.63;;;21.20;91.20;;;;;;5075450;28;20516;-56
2022/08/24 00:51:13;;;;;;;6.70;4.87;;;21.20;91.30;;;;;;5074841;28;20467;-57
2022/08/24 00:53:45;;;;;;;10.20;4.97;;;21.10;91.40;;;;;;5075157;28;20428;-56
2022/08/24 00:56:23;;;;;;;5.83;4.70;;;;;;;;;;5074888;28;20416;-57
2022/08/24 00:58:56;;;;;;;4.57;4.17;;;20.80;92.00;;;;;;5075179;28;20517;-58
2022/08/24 01:01:23;;;;;;;5.07;4.53;;;20.70;92.60;;;;;;5074755;28;21038;-57
2022/08/24 01:03:53;;;;;;;5.10;4.70;;;20.70;92.80;;;;;;5074596;28;20444;-56
2022/08/24 01:06:20;;;;;;;6.03;4.80;;;20.90;92.50;;;;;;5074648;28;20557;-57
2022/08/24 01:08:47;;;;;;;7.13;6.10;;;21.00;92.30;;;;;;5074656;28;20488;-57
2022/08/24 01:11:17;;;;;;;5.90;5.40;;;21.00;92.30;;;;;;5074558;28;20483;-57
2022/08/24 01:13:48;;;;;;;5.17;4.67;;;21.10;92.70;;;;;;5074846;28;20425;-56
2022/08/24 01:18:48;;;;;;;5.73;5.23;;;21.10;92.70;;;;;;5074850;28;20429;-58
2022/08/24 01:19:10;;;;;;;4.50;4.10;;;21.10;92.80;;;;;;5074327;28;20474;-57
2022/08/24 01:21:45;;;;;;;6.03;4.23;;;21.00;92.70;;;;;;5074679;28;20465;-57
2022/08/24 01:24:14;;;;;;;5.60;5.10;;;20.70;93.50;;;;;;5074314;28;20914;-56
2022/08/24 01:26:46;;;;;;;5.10;4.60;;;20.70;93.90;;;;;;5074014;28;20519;-57
2022/08/24 01:29:16;;;;;;;6.33;5.20;;;20.60;94.20;;;;;;5074427;28;20467;-57
2022/08/24 01:31:44;;;;;;;5.80;5.20;;;20.50;94.80;;;;;;5074368;28;20483;-56
2022/08/24 01:34:11;;;;;;;5.10;4.60;;;20.40;95.10;;;;;;5073944;28;20967;-56
2022/08/24 01:36:42;;;;;;;6.53;5.43;;;20.30;95.40;;;;;;5073866;28;20498;-57
2022/08/24 01:39:14;;;;;;;5.53;5.13;;;20.30;95.60;;;;;;5074309;28;20444;-56
2022/08/24 01:41:42;;;;;;;5.30;4.90;;;20.30;95.90;;;;;;5074284;28;20484;-56
2022/08/24 01:44:09;;;;;;;9.17;5.50;;;20.30;96.20;;;;;;5073718;28;20980;-56
2022/08/24 01:46:36;;;;;;;5.43;4.87;;;20.30;96.30;;;;;;5073996;28;20571;-56
2022/08/24 01:49:04;;;;;;;5.90;4.90;;;20.30;96.60;;;;;;5074190;28;20873;-56
2022/08/24 01:51:35;;;;;;;5.37;4.90;;;20.20;96.90;;;;;;5073941;28;20511;-56
2022/08/24 01:54:03;;;;;;;5.63;5.13;;;20.10;97.30;;;;;;5073948;28;20479;-56
2022/08/24 01:56:32;;;;;;;5.77;5.27;;;20.10;97.60;;;;;;5073700;28;20951;-56
2022/08/24 01:59:00;;;;;;;7.70;5.57;;;20.00;97.80;;;;;;5073524;28;20444;-56
2022/08/24 02:01:30;;;;;;;6.43;5.83;;;19.90;98.40;;;;;;5073829;28;20460;-56
2022/08/24 02:03:58;;;;;;;7.23;5.73;;;;;;;;;;5073430;28;20502;-56
2022/08/24 02:06:26;;;;;;;8.90;4.83;;;19.80;98.80;;;;;;5073742;28;20875;-57
2022/08/24 02:08:53;;;;;;;6.07;5.47;;;19.80;99.30;;;;;;5073458;28;20761;-57
2022/08/24 02:11:20;;;;;;;5.90;5.40;;;19.90;99.50;;;;;;5073491;28;20483;-56
2022/08/24 02:13:48;;;;;;;6.07;5.50;;;20.00;99.90;;;;;;5073532;28;20452;-56
2022/08/24 02:16:16;;;;;;;8.93;5.93;;;20.10;99.90;;;;;;5073354;28;21009;-57
2022/08/24 02:18:47;;;;;;;6.53;5.93;;;20.00;99.90;;;;;;5073460;28;20433;-56
2022/08/24 02:21:15;;;;;;;6.90;5.90;;;20.10;99.90;;;;;;5073628;28;20514;-56
2022/08/24 02:23:43;;;;;;;6.50;5.90;;;20.10;99.90;;;;;;5073535;28;20866;-56
2022/08/24 02:26:11;;;;;;;7.70;6.97;;;20.10;99.90;;;;;;5073493;28;20444;-56
2022/08/24 02:28:39;;;;;;;14.67;7.27;;;20.20;99.90;;;;;;5073521;28;20480;-56
2022/08/24 02:31:10;;;;;;;12.07;7.77;;;20.30;99.90;;;;;;5073131;28;20559;-57
2022/08/24 02:33:38;;;;;;;9.53;6.40;;;20.30;99.90;;;;;;5073127;28;20607;-56
2022/08/24 02:36:07;;;;;;;5.67;5.17;;;20.30;99.90;;;;;;5073434;28;20502;-56
2022/08/24 02:38:34;;;;;;;6.27;5.67;;;19.80;99.90;;;;;;5073472;28;20440;-57
2022/08/24 02:41:02;;;;;;;6.33;5.70;;;;;;;;;;5073062;28;20475;-57
2022/08/24 02:43:29;;;;;;;5.73;5.00;;;19.60;99.90;;;;;;5073082;28;20473;-56
2022/08/24 02:45:56;;;;;;;6.50;6.00;;;19.60;99.90;;;;;;5073137;28;20865;-56
2022/08/24 02:48:25;;;;;;;7.27;6.23;;;19.50;99.90;;;;;;5072879;28;20482;-56
2022/08/24 02:50:53;;;;;;;8.07;5.93;;;19.50;99.90;;;;;;5073217;28;20814;-57
2022/08/24 02:53:22;;;;;;;7.10;6.40;;;19.40;99.90;;;;;;5073385;28;20459;-57
2022/08/24 02:55:49;;;;;;;11.77;5.37;;;19.30;99.90;;;;;;5073189;28;20444;-56
2022/08/24 02:58:17;;;;;;;7.57;6.40;;;19.40;99.90;;;;;;5073205;28;20523;-56
2022/08/24 03:00:46;;;;;;;8.13;6.80;;;19.60;99.90;;;;;;5073110;28;20464;-56
2022/08/24 03:03:14;;;;;;;8.03;6.33;;;19.60;99.90;;;;;;5073013;28;20523;-56
2022/08/24 03:05:43;;;;;;;7.60;6.60;;;19.70;99.90;;;;;;5073100;28;20451;-56
2022/08/24 03:08:10;;;;;;;5.50;5.00;;;19.70;99.90;;;;;;5072613;28;20480;-56
2022/08/24 03:10:37;;;;;;;7.03;6.10;;;19.60;99.90;;;;;;5073037;28;20533;-57
2022/08/24 03:13:04;;;;;;;7.70;6.90;;;19.40;99.90;;;;;;5073064;28;20614;-56
2022/08/24 03:15:31;;;;;;;8.20;6.60;;;19.30;99.90;;;;;;5073249;28;20963;-57
2022/08/24 03:17:59;;;;;;;5.90;5.50;;;19.20;99.90;;;;;;5077068;28;20867;-57
2022/08/24 03:20:26;;;;;;;7.93;6.13;;;19.10;99.90;;;;;;5076508;28;20503;-56
2022/08/24 03:22:55;;;;;;;7.37;6.77;;;19.10;99.90;;;;;;5076857;28;20541;-56
2022/08/24 03:25:25;;;;;;;7.40;6.77;;;19.10;99.90;;;;;;5076876;28;20454;-57
2022/08/24 03:27:53;;;;;;;7.37;6.77;;;19.20;99.90;;;;;;5076847;28;21012;-56
2022/08/24 03:30:22;;;;;;;8.40;7.60;;;19.30;99.90;;;;;;5076664;28;20658;-57
2022/08/24 03:32:49;;;;;;;8.17;7.37;;;19.40;99.90;;;;;;5076781;28;20502;-57
2022/08/24 03:35:20;;;;;;;9.43;6.60;;;19.50;99.90;;;;;;5076325;28;20939;-57
2022/08/24 03:37:48;;;;;;;10.07;6.47;;;19.50;99.90;;;;;;5076542;28;20428;-56
2022/08/24 03:40:19;;;;;;;9.27;7.33;;;19.40;99.90;;;;;;5076332;28;20448;-58
2022/08/24 03:42:46;;;;;;;7.50;6.90;;;19.30;99.90;;;;;;5076574;28;20428;-56
2022/08/24 03:45:13;;;;;;;7.77;7.17;;;19.20;99.90;;;;;;5076048;28;20482;-57
2022/08/24 03:47:40;;;;;;;10.23;6.60;;;19.20;99.90;;;;;;5076246;28;20490;-56
2022/08/24 03:50:09;;;;;;;7.60;6.90;;;19.10;99.90;;;;;;5076393;28;20451;-56
2022/08/24 03:52:36;;;;;;;6.57;5.83;;;19.00;99.90;;;;;;5076282;28;20450;-56
2022/08/24 03:55:03;;;;;;;7.50;6.90;;;;;;;;;;5076008;28;20434;-58
2022/08/24 03:57:32;;;;;;;7.40;6.70;;;19.00;99.90;;;;;;5076027;28;20947;-56
2022/08/24 03:59:59;;;;;;;7.70;7.00;;;19.10;99.90;;;;;;5075867;28;20943;-57
2022/08/24 04:02:27;;;;;;;8.17;7.37;;;19.20;99.90;;;;;;5076111;28;20563;-57
2022/08/24 04:04:54;;;;;;;8.33;6.90;;;19.20;99.90;;;;;;5076265;28;20494;-56
2022/08/24 04:07:22;;;;;;;8.23;7.37;;;19.10;99.90;;;;;;5075522;28;20936;-57
2022/08/24 04:09:49;;;;;;;6.90;6.30;;;18.90;99.90;;;;;;5075652;28;20498;-57
2022/08/24 04:12:16;;;;;;;7.27;6.67;;;18.80;99.90;;;;;;5076193;28;20479;-56
2022/08/24 04:14:45;;;;;;;8.33;7.40;;;18.80;99.90;;;;;;5075708;28;20790;-57
2022/08/24 04:17:12;;;;;;;7.60;6.90;;;18.80;99.90;;;;;;5075474;28;20448;-57
2022/08/24 04:19:56;;;;;;;8.90;7.13;;;18.90;99.90;;;;;;5075413;28;20807;-56
2022/08/24 04:22:23;;;;;;;9.80;7.20;;;19.00;99.90;;;;;;5075448;28;20954;-57
2022/08/24 04:24:51;;;;;;;8.07;6.30;;;19.10;99.90;;;;;;5075518;28;20455;-56
2022/08/24 04:27:18;;;;;;;6.57;6.07;;;19.20;99.90;;;;;;5074855;28;20479;-56
2022/08/24 04:29:47;;;;;;;7.07;6.47;;;19.20;99.90;;;;;;5075620;28;20514;-56
2022/08/24 04:32:15;;;;;;;8.43;6.23;;;19.20;99.90;;;;;;5075282;28;20556;-56
2022/08/24 04:34:42;;;;;;;10.80;6.93;;;19.20;99.90;;;;;;5075513;28;20464;-56
2022/08/24 04:37:10;;;;;;;6.90;6.40;;;19.20;99.90;;;;;;5075124;28;20539;-56
2022/08/24 04:39:37;;;;;;;6.57;5.30;;;19.20;99.90;;;;;;5075193;28;20940;-57
2022/08/24 04:42:04;;;;;;;9.97;6.87;;;19.30;99.90;;;;;;5075453;28;20479;-56
2022/08/24 04:44:31;;;;;;;7.10;6.50;;;19.20;99.90;;;;;;5074775;28;20480;-56
2022/08/24 04:47:01;;;;;;;6.70;6.10;;;18.90;99.90;;;;;;5075084;28;20496;-56
2022/08/24 04:49:28;;;;;;;6.07;5.57;;;18.80;99.90;;;;;;5074964;28;20444;-56
2022/08/24 04:51:55;;;;;;;6.80;6.30;;;18.70;99.90;;;;;;5074758;28;20464;-56
2022/08/24 04:54:23;;;;;;;8.20;6.53;;;18.70;99.90;;;;;;5075174;28;20456;-57
2022/08/24 04:56:50;;;;;;;9.27;5.87;;;18.80;99.90;;;;;;5075130;28;20551;-56
2022/08/24 04:59:18;;;;;;;11.17;6.33;;;18.90;99.90;;;;;;5074830;28;20520;-57
2022/08/24 05:01:45;;;;;;;6.30;5.43;;;19.00;99.90;;;;;;5074883;28;20825;-57
2022/08/24 05:04:13;;;;;;;8.70;6.47;;;19.10;99.90;;;;;;5074635;28;20939;-56
2022/08/24 05:06:41;;;;;;;7.13;6.20;;;19.00;99.90;;;;;;5074801;28;20539;-56
2022/08/24 05:09:09;;;;;;;10.03;5.90;;;19.00;99.90;;;;;;5074592;28;20483;-56
2022/08/24 05:11:39;;;;;;;7.80;6.40;;;19.10;99.90;;;;;;5075348;28;20583;-56
2022/08/24 05:14:07;;;;;;;7.10;6.40;;;19.00;99.90;;;;;;5074592;28;20505;-56
2022/08/24 05:16:36;;;;;;;7.27;6.03;;;18.90;99.90;;;;;;5074606;28;20476;-57
2022/08/24 05:19:05;;;;;;;8.87;6.10;;;18.90;99.90;;;;;;5074698;28;20502;-56
2022/08/24 05:21:35;;;;;;;7.67;6.90;;;19.00;99.90;;;;;;5074346;28;20517;-56
2022/08/24 05:24:02;;;;;;;5.77;5.27;;;19.10;99.90;;;;;;5074310;28;20452;-56
2022/08/24 05:26:29;;;;;;;6.63;6.03;;;19.30;99.90;;;;;;5074558;28;20479;-56
2022/08/24 05:28:58;;;;;;;7.43;6.33;;;19.30;99.90;;;;;;5074633;28;20833;-56
2022/08/24 05:31:28;;;;;;;7.10;6.50;;;19.50;99.90;;;;;;5074093;28;20547;-56
2022/08/24 05:33:55;;;;;;;7.60;6.23;;;19.60;99.90;;;;;;5073805;28;20865;-57
2022/08/24 05:36:24;;;;;;;6.93;6.03;;;19.70;99.90;;;;;;5074587;28;20456;-56
2022/08/24 05:38:54;;;;;;;7.60;6.80;;;19.70;99.90;;;;;;5073086;28;20441;-56
2022/08/24 05:41:21;;;;;;;8.70;7.23;;;19.80;99.90;;;;;;5074003;28;20517;-57
2022/08/24 05:43:49;;;;;;;6.90;6.30;;;19.80;99.90;;;;;;5073908;28;20842;-56
2022/08/24 05:46:16;;;;;;;7.47;6.87;;;19.90;99.90;;;;;;5074036;28;20429;-57
2022/08/24 05:48:43;;;;;;;7.03;6.33;;;20.00;99.90;;;;;;5073519;28;21052;-56
2022/08/24 05:51:11;;;;;;;7.97;6.80;;;20.00;99.90;;;;;;5073494;28;20518;-57
2022/08/24 05:53:39;;;;;;;7.97;6.70;;;20.00;99.90;;;;;;5073696;28;20444;-57
2022/08/24 05:56:10;;;;;;;7.80;6.77;;;20.00;99.90;;;;;;5073694;28;20451;-56
2022/08/24 05:58:38;;;;;;;7.33;6.63;;;20.10;99.90;;;;;;5074209;28;20440;-57
2022/08/24 06:01:10;;;;;;;7.47;6.60;;;20.20;99.90;;;;;;5073784;28;20459;-56
2022/08/24 06:03:38;;;;;;;9.90;8.93;;;20.30;99.90;;;;;;5073606;28;20444;-56
2022/08/24 06:06:07;;;;;;;10.20;7.73;;;20.30;99.90;;;;;;5073661;28;20466;-56
2022/08/24 06:08:35;;;;;;;9.33;7.23;;;20.50;99.90;;;;;;5073604;28;20480;-56
2022/08/24 06:11:03;;;;;;;8.47;6.93;;;20.60;99.90;;;;;;5073324;28;20486;-56
2022/08/24 06:13:32;;;;;;;6.63;6.00;;;20.60;99.90;;;;;;5073158;28;20451;-56
2022/08/24 06:16:07;;;;;;;7.73;7.03;;;20.80;99.90;;;;;;5073406;28;20959;-57
2022/08/24 06:18:35;;;;;;;8.57;7.40;;;20.80;99.90;;;;;;5073351;28;20450;-57
2022/08/24 06:21:06;;;;;;;10.23;7.07;;;20.80;99.90;;;;;;5072953;28;20468;-57
2022/08/24 06:23:34;;;;;;;7.30;6.63;;;20.80;99.90;;;;;;5073095;28;20448;-56
2022/08/24 06:28:47;;;;;;;6.57;6.00;;;20.90;99.90;;;;;;5073299;28;20491;-56
2022/08/24 06:31:14;;;;;;;7.47;6.77;;;20.90;99.90;;;;;;5073070;28;20470;-56
2022/08/24 06:33:42;;;;;;;6.77;5.90;;;21.10;99.90;;;;;;5073154;28;20454;-57
2022/08/24 06:36:09;;;;;;;16.43;7.60;;;21.20;99.90;;;;;;5073458;28;20448;-57
2022/08/24 06:38:36;;;;;;;6.17;5.57;;;21.20;99.90;;;;;;5072959;28;20923;-57
2022/08/24 06:41:03;;;;;;;8.40;6.17;;;21.30;99.90;;;;;;5073036;28;20476;-56
2022/08/24 06:43:31;;;;;;;6.27;5.67;;;21.40;99.90;;;;;;5073039;28;20544;-56
2022/08/24 06:46:00;;;;;;;6.40;5.90;;;21.50;99.90;;;;;;5072857;28;20980;-56
2022/08/24 06:48:27;;;;;;;8.07;6.83;;;21.50;99.90;;;;;;5072555;28;20982;-56
2022/08/24 06:50:55;;;;;;;8.17;6.20;;;21.60;99.90;;;;;;5077952;28;20468;-56
2022/08/24 06:53:22;;;;;;;7.73;6.60;;;21.50;99.90;;;;;;5079484;28;20531;-57
2022/08/24 06:55:50;;;;;;;6.43;5.83;;;21.60;99.90;;;;;;5079447;28;20509;-57
2022/08/24 06:58:18;;;;;;;6.90;6.23;;;21.70;99.90;;;;;;5079766;28;20802;-57
2022/08/24 07:00:46;;;;;;;7.93;6.50;;;21.80;99.90;;;;;;5079722;28;20464;-57
2022/08/24 07:03:15;;;;;;;13.00;6.90;;;21.80;99.90;;;;;;5079230;28;20527;-57
2022/08/24 07:05:50;;;;;;;7.37;6.67;;;21.80;99.90;;;;;;5079650;28;20448;-56
2022/08/24 07:08:17;;;;;;;8.73;6.23;;;21.90;99.90;;;;;;5079573;28;20854;-56
2022/08/24 07:10:45;;;;;;;9.20;6.17;;;21.90;99.90;;;;;;5079187;28;20472;-56
2022/08/24 07:13:13;;;;;;;9.60;5.47;;;22.00;99.90;;;;;;5079177;28;20986;-56
2022/08/24 07:15:40;;;;;;;8.43;5.40;;;22.20;99.90;;;;;;5079248;28;20444;-57
2022/08/24 07:18:09;;;;;;;6.50;5.80;;;22.30;99.90;;;;;;5079304;28;20444;-56
2022/08/24 07:20:37;;;;;;;6.53;5.93;;;22.40;99.90;;;;;;5079172;28;20551;-56
2022/08/24 07:23:06;;;;;;;8.27;6.10;;;22.50;99.90;;;;;;5079521;28;20440;-57
2022/08/24 07:25:33;;;;;;;7.87;6.63;;;22.70;99.80;;;;;;5079683;28;20539;-57
2022/08/24 07:28:01;;;;;;;6.43;5.93;;;22.70;99.60;;;;;;5079424;28;20447;-56
2022/08/24 07:30:28;;;;;;;6.77;6.10;;;22.80;99.90;;;;;;5079348;28;20555;-56
2022/08/24 07:32:56;;;;;;;7.00;6.40;;;22.90;99.20;;;;;;5079358;28;20458;-56
2022/08/24 07:35:24;;;;;;;7.17;5.60;;;23.00;99.00;;;;;;5074454;28;20535;-57
2022/08/24 07:37:53;;;;;;;7.90;6.10;;;23.00;99.20;;;;;;5078799;28;20455;-56
2022/08/24 07:40:21;;;;;;;7.80;6.03;;;23.20;99.00;;;;;;5079051;28;20927;-56
2022/08/24 07:42:49;;;;;;;6.47;5.87;;;23.20;98.60;;;;;;5079137;28;20874;-57
2022/08/24 07:45:18;;;;;;;7.50;6.33;;;23.30;99.10;;;;;;5078923;28;20480;-57
2022/08/24 07:47:45;;;;;;;9.30;6.80;;;23.30;98.50;;;;;;5079011;28;20969;-57
2022/08/24 07:50:12;;;;;;;10.43;7.10;;;23.30;98.30;;;;;;5079126;28;20844;-56
2022/08/24 07:52:40;;;;;;;12.33;7.47;;;23.40;98.20;;;;;;5078628;28;20615;-57
2022/08/24 07:55:10;;;;;;;10.67;6.93;;;23.40;98.90;;;;;;5078507;28;20447;-56
2022/08/24 07:57:38;;;;;;;8.27;6.43;;;23.40;98.10;;;;;;5079183;28;20479;-57
2022/08/24 08:00:06;;;;;;;7.00;5.83;;;23.60;98.00;;;;;;5078557;28;20787;-57
2022/08/24 08:02:34;;;;;;;6.50;5.80;;;23.60;97.00;;;;;;5075321;28;20955;-57
2022/08/24 08:05:01;;;;;;;5.93;5.40;;;23.80;96.90;;;;;;5075688;28;20452;-57
2022/08/24 08:07:28;;;;;;;5.93;5.40;;;23.80;95.20;;;;;;5075326;28;20535;-56
2022/08/24 08:09:55;;;;;;;7.70;5.17;;;23.80;94.20;;;;;;5075306;28;20519;-56
2022/08/24 08:12:24;;;;;;;8.37;5.30;;;23.80;94.40;;;;;;5071574;28;20491;-57
2022/08/24 08:14:51;;;;;;;5.13;4.63;;;23.90;94.70;;;;;;5075649;28;20458;-57
2022/08/24 08:17:18;;;;;;;8.40;6.20;;;24.10;94.80;;;;;;5075125;28;20455;-56
2022/08/24 08:19:45;;;;;;;8.47;4.90;;;24.20;94.20;;;;;;5075253;28;20519;-56
2022/08/24 08:24:57;;;;;;;5.73;4.80;;;24.40;92.10;;;;;;5075202;28;20785;-57
2022/08/24 08:27:26;;;;;;;4.50;4.20;;;24.90;92.20;;;;;;5075248;28;20429;-57
2022/08/24 08:29:54;;;;;;;4.47;4.03;;;25.90;90.50;;;;;;5075580;28;20567;-57
2022/08/24 08:32:21;;;;;;;5.43;3.80;;;27.00;88.00;;;;;;5075109;28;21045;-57
2022/08/24 08:34:48;;;;;;;3.80;3.50;;;;;;;;;;5074997;28;20484;-57
2022/08/24 08:37:16;;;;;;;3.70;3.40;;;28.10;81.70;;;;;;5074960;28;20452;-57
2022/08/24 08:39:43;;;;;;;4.40;4.10;;;28.30;79.30;;;;;;5075311;28;20531;-57
2022/08/24 08:42:39;;;;;;;4.30;3.90;;;28.60;78.00;;;;;;5075226;28;20472;-57
2022/08/24 08:45:17;;;;;;;3.70;3.20;;;28.30;76.70;;;;;;5074817;28;20481;-56
2022/08/24 08:48:26;;;;;;;4.97;3.93;;;28.40;73.50;;;;;;5075134;28;20523;-57
2022/08/24 08:51:25;;;;;;;4.83;3.20;;;28.10;71.80;;;;;;5054719;28;20468;-57
2022/08/24 08:54:26;;;;;;;8.50;4.10;;;29.30;70.40;;;;;;5050307;28;20444;-56
2022/08/24 08:57:13;;;;;;;4.50;3.70;;;29.30;68.20;;;;;;5002875;28;20453;-56
2022/08/24 09:00:05;;;;;;;3.17;2.83;;;29.10;68.60;;;;;;5054578;28;20475;-56
2022/08/24 09:02:54;;;;;;;5.40;3.40;;;29.30;66.60;;;;;;5054613;28;20453;-56
2022/08/24 09:05:51;;;;;;;4.20;3.57;;;29.90;66.20;;;;;;5061864;28;20480;-55
2022/08/24 09:08:31;;;;;;;3.60;3.30;;;30.20;65.20;;;;;;5074266;28;20812;-56
2022/08/24 09:11:07;;;;;;;4.90;2.97;;;29.90;64.20;;;;;;5074552;28;20508;-55
2022/08/24 09:13:58;;;;;;;4.33;3.93;;;30.20;64.00;;;;;;5073332;28;20425;-56
2022/08/24 09:16:39;;;;;;;3.50;3.20;;;30.00;62.90;;;;;;5074630;28;20424;-56
2022/08/24 09:19:26;;;;;;;3.30;3.10;;;29.80;61.50;;;;;;5074700;28;20428;-56
2022/08/24 09:22:10;;;;;;;4.63;3.43;;;30.40;62.70;;;;;;5074060;28;20971;-56
2022/08/24 09:25:12;;;;;;;5.10;3.50;;;30.90;60.10;;;;;;5074214;28;20425;-56
2022/08/24 09:27:54;;;;;;;3.63;3.30;;;30.90;60.30;;;;;;5074312;28;20429;-56
2022/08/24 09:30:23;;;;;;;4.60;2.43;;;31.40;61.20;;;;;;5073927;28;20494;-56
2022/08/24 09:33:04;;;;;;;3.20;2.90;;;31.60;58.00;;;;;;5074141;28;20502;-54
2022/08/24 09:36:00;;;;;;;4.67;2.90;;;31.50;58.10;;;;;;5073946;28;20464;-54
2022/08/24 09:38:56;;;;;;;6.60;2.83;;;31.10;57.90;;;;;;5073793;28;20468;-56
2022/08/24 09:42:08;;;;;;;5.80;3.10;;;31.20;57.90;;;;;;5074020;28;20554;-56
2022/08/24 09:45:11;;;;;;;3.07;2.80;;;31.80;57.90;;;;;;5073349;28;20900;-56
2022/08/24 09:48:09;;;;;;;5.97;2.43;;;32.10;56.00;;;;;;5073827;28;20853;-55
2022/08/24 09:51:14;;;;;;;4.93;3.40;;;32.10;55.30;;;;;;5073441;28;20491;-55
2022/08/24 09:54:18;;;;;;;3.40;2.27;;;32.70;56.20;;;;;;5070729;28;20452;-56
2022/08/24 09:57:07;;;;;;;3.53;2.63;;;33.30;54.40;;;;;;5073706;28;20452;-55
2022/08/24 10:00:03;;;;;;;4.53;2.77;;;33.30;54.30;;;;;;5062967;28;20487;-55
2022/08/24 10:03:07;;;;;;;3.00;2.70;;;33.30;53.60;;;;;;5073556;28;20834;-55
2022/08/24 10:05:56;;;;;;;3.27;2.97;;;33.50;53.30;;;;;;5031638;28;20520;-56
2022/08/24 10:08:34;;;;;;;3.83;2.90;;;33.60;53.40;;;;;;5053121;28;20516;-55
2022/08/24 10:11:10;;;;;;;2.73;2.53;;;33.30;52.50;;;;;;5053340;28;20489;-55
2022/08/24 10:13:48;;;;;;;3.67;2.60;;;33.00;52.20;;;;;;5053419;28;20433;-55
2022/08/24 10:16:24;;;;;;;3.40;3.10;;;32.90;52.90;;;;;;5053248;28;20797;-55
2022/08/24 10:19:06;;;;;;;2.97;2.77;;;33.40;53.70;;;;;;5053112;28;20440;-55
2022/08/24 10:21:46;;;;;;;2.63;2.43;;;33.60;52.80;;;;;;5053076;28;20828;-55
2022/08/24 10:24:36;;;;;;;2.57;2.37;;;33.40;52.10;;;;;;5052808;28;20410;-55
2022/08/24 10:27:26;;;;;;;4.40;2.40;;;33.70;51.50;;;;;;5053066;28;20438;-55
2022/08/24 10:30:23;;;;;;;2.70;2.47;;;32.60;51.30;;;;;;5052956;28;20989;-55
2022/08/24 10:33:04;;;;;;;4.17;2.60;;;32.80;50.80;;;;;;5040969;28;20452;-55
2022/08/24 10:35:37;;;;;;;2.80;2.50;;;32.80;51.50;;;;;;5064002;28;20431;-56
2022/08/24 10:41:41;;;;;;;3.27;2.97;;;32.50;51.50;;;;;;5066543;28;20809;-55
2022/08/24 10:44:30;;;;;;;3.07;2.37;;;33.10;51.70;;;;;;5072762;28;20476;-56
2022/08/24 10:46:59;;;;;;;2.93;2.63;;;33.00;51.90;;;;;;5071971;28;20519;-56
2022/08/24 10:50:09;;;;;;;4.03;2.43;;;33.80;51.50;;;;;;5071081;28;20524;-56
2022/08/24 10:53:03;;;;;;;3.53;2.80;;;33.20;51.30;;;;;;5073137;28;20408;-56
2022/08/24 10:55:34;;;;;;;3.63;2.80;;;33.60;50.90;;;;;;5073256;28;20424;-56
2022/08/24 10:58:32;;;;;;;2.53;2.33;;;33.10;51.80;;;;;;5072798;28;20440;-56
2022/08/24 11:01:14;;;;;;;2.53;2.33;;;33.40;51.70;;;;;;5073270;28;20460;-56
2022/08/24 11:03:53;;;;;;;5.80;2.40;;;33.80;50.10;;;;;;5072822;28;20417;-56
2022/08/24 11:06:21;;;;;;;2.27;2.07;;;34.00;49.40;;;;;;5073079;28;20424;-56
2022/08/24 11:08:55;;;;;;;2.17;1.90;;;34.20;49.20;;;;;;5072954;28;20547;-56
2022/08/24 11:11:32;;;;;;;2.43;2.17;;;34.30;48.90;;;;;;5072866;28;20533;-56
2022/08/24 11:14:06;;;;;;;2.80;2.40;;;33.80;49.10;;;;;;5072975;28;20412;-56
2022/08/24 11:16:39;;;;;;;2.40;2.20;;;34.40;49.50;;;;;;5072653;28;20428;-56
2022/08/24 11:19:10;;;;;;;2.40;2.20;;;34.60;49.30;;;;;;5072862;28;20922;-56
2022/08/24 11:21:55;;;;;;;6.93;2.77;;;34.30;48.40;;;;;;5072580;28;20475;-56
2022/08/24 11:24:30;;;;;;;2.63;2.37;;;34.70;48.10;;;;;;5072554;28;20420;-56
2022/08/24 11:27:02;;;;;;;3.00;2.80;;;34.60;48.20;;;;;;5072545;28;20984;-56
2022/08/24 11:30:06;;;;;;;2.50;2.27;;;34.80;48.10;;;;;;5072561;28;20467;-56
2022/08/24 11:32:39;;;;;;;3.30;2.60;;;35.20;47.90;;;;;;5072705;28;20777;-56
2022/08/24 11:35:17;;;;;;;3.30;2.60;;;35.40;49.10;;;;;;5072300;28;20433;-56
2022/08/24 11:37:45;;;;;;;7.27;3.10;;;35.00;49.40;;;;;;5075105;28;20511;-56
2022/08/24 11:40:13;;;;;;;4.50;2.53;;;35.10;48.50;;;;;;5075843;28;20937;-56
2022/08/24 11:43:02;;;;;;;2.40;2.20;;;34.10;47.60;;;;;;5076367;28;20470;-56
2022/08/24 11:45:36;;;;;;;2.97;2.67;;;35.10;48.30;;;;;;5063346;28;20487;-56
2022/08/24 11:48:18;;;;;;;2.47;2.27;;;34.80;47.40;;;;;;5076012;28;20431;-56
2022/08/24 11:50:52;;;;;;;2.53;2.20;;;34.30;47.50;;;;;;5076116;28;20579;-55
2022/08/24 11:53:30;;;;;;;3.53;2.50;;;33.80;47.60;;;;;;5076098;28;20456;-56
2022/08/24 11:56:08;;;;;;;2.50;2.30;;;33.70;48.10;;;;;;5076359;28;20511;-56
2022/08/24 11:58:53;;;;;;;2.90;2.70;;;33.90;48.10;;;;;;5076171;28;20439;-56
2022/08/24 12:01:25;;;;;;;3.40;2.07;;;34.30;48.30;;;;;;5075705;28;20464;-56
2022/08/24 12:04:17;;;;;;;2.40;2.20;;;34.10;47.40;;;;;;5076161;28;20515;-56
2022/08/24 12:06:54;;;;;;;2.30;2.10;;;34.00;47.90;;;;;;5076132;28;20527;-56
2022/08/24 12:09:33;;;;;;;2.73;2.50;;;34.20;47.20;;;;;;5075562;28;20527;-56
2022/08/24 12:12:06;;;;;;;2.10;1.90;;;34.70;47.30;;;;;;5075846;28;20463;-56
2022/08/24 12:14:41;;;;;;;2.53;2.33;;;34.30;47.00;;;;;;5075966;28;20523;-56
2022/08/24 12:17:15;;;;;;;2.43;2.20;;;34.40;47.00;;;;;;5075646;28;20451;-56
2022/08/24 12:19:48;;;;;;;2.80;2.40;;;34.20;46.80;;;;;;5076017;28;20456;-57
2022/08/24 12:22:18;;;;;;;2.20;2.00;;;34.10;47.40;;;;;;5075579;28;20525;-56
2022/08/24 12:24:48;;;;;;;2.37;2.17;;;34.10;47.40;;;;;;5075792;28;20447;-57
2022/08/24 12:27:19;;;;;;;4.43;2.97;;;;;;;;;;5075851;28;20435;-56
2022/08/24 12:29:53;;;;;;;3.10;2.50;;;33.70;47.00;;;;;;5075597;28;20504;-56
2022/08/24 12:32:25;;;;;;;2.60;2.27;;;33.90;46.90;;;;;;5075493;28;20470;-54
2022/08/24 12:34:56;;;;;;;4.93;2.47;;;34.00;46.90;;;;;;5075281;28;20860;-55
2022/08/24 12:37:30;;;;;;;6.83;2.77;;;34.40;47.00;;;;;;5075749;28;20790;-55
2022/08/24 12:40:07;;;;;;;2.33;2.13;;;34.00;46.80;;;;;;5075412;28;20425;-56
2022/08/24 12:42:41;;;;;;;8.73;2.87;;;33.80;47.00;;;;;;5074917;28;20735;-56
2022/08/24 12:45:12;;;;;;;2.43;2.23;;;33.70;47.10;;;;;;5073692;28;21009;-55
2022/08/24 12:47:47;;;;;;;2.50;2.30;;;33.80;47.40;;;;;;5074800;28;20433;-56
2022/08/24 12:50:22;;;;;;;4.00;2.53;;;33.60;47.10;;;;;;5074790;28;20468;-55
2022/08/24 12:53:16;;;;;;;2.37;2.00;;;33.00;47.60;;;;;;5074784;28;20438;-55
2022/08/24 12:56:16;;;;;;;2.47;2.30;;;32.50;47.20;;;;;;5075034;28;20435;-56
2022/08/24 12:59:05;;;;;;;3.77;2.30;;;32.70;47.70;;;;;;5074774;28;20459;-56
2022/08/24 13:01:37;;;;;;;2.20;2.00;;;32.80;47.40;;;;;;5074738;28;20457;-55
2022/08/24 13:04:19;;;;;;;2.60;2.40;;;32.90;47.10;;;;;;5075006;28;20518;-55
2022/08/24 13:06:55;;;;;;;2.37;2.20;;;33.10;47.70;;;;;;5075020;28;20432;-55
2022/08/24 13:09:32;;;;;;;2.33;2.13;;;33.10;47.60;;;;;;5074715;28;20927;-55
2022/08/24 13:12:21;;;;;;;3.47;3.17;;;33.40;47.20;;;;;;5074919;28;20487;-55
2022/08/24 13:14:50;;;;;;;2.87;2.30;;;33.40;47.00;;;;;;5074506;28;20448;-55
2022/08/24 13:17:20;;;;;;;2.40;2.20;;;33.70;47.20;;;;;;5074268;28;20509;-55
2022/08/24 13:20:19;;;;;;;2.37;2.17;;;33.90;47.20;;;;;;5074531;28;20806;-55
2022/08/24 13:23:00;;;;;;;2.60;2.27;;;34.00;46.20;;;;;;5074048;28;20444;-55
2022/08/24 13:25:55;;;;;;;3.17;2.40;;;33.90;46.70;;;;;;5074147;28;20543;-56
2022/08/24 13:28:39;;;;;;;4.53;2.40;;;33.40;45.80;;;;;;5073996;28;20500;-56